createdAt,value
2023-04-15T00:00:55.545Z,34.20
2023-04-15T00:01:55.600Z,34.18
2023-04-15T00:02:55.771Z,34.24
2023-04-15T00:03:55.593Z,34.20
2023-04-15T00:04:55.554Z,34.21
2023-04-15T00:05:55.518Z,34.20
2023-04-15T00:06:55.497Z,34.16
2023-04-15T00:07:55.503Z,34.16
2023-04-15T00:08:55.515Z,34.15
2023-04-15T00:09:55.482Z,34.16
2023-04-15T00:10:55.466Z,34.19
2023-04-15T00:11:55.459Z,34.16
2023-04-15T00:12:55.489Z,34.15
2023-04-15T00:13:55.529Z,34.16
2023-04-15T00:14:55.574Z,34.16
2023-04-15T00:15:55.584Z,34.12
2023-04-15T00:16:55.687Z,34.15
2023-04-15T00:17:55.743Z,34.10
2023-04-15T00:18:55.722Z,34.11
2023-04-15T00:19:55.747Z,34.16
2023-04-15T00:20:55.733Z,34.11
2023-04-15T00:21:55.789Z,34.11
2023-04-15T00:22:55.808Z,34.17
2023-04-15T00:23:55.853Z,34.13
2023-04-15T00:24:55.884Z,34.10
2023-04-15T00:25:55.926Z,34.10
2023-04-15T00:26:55.937Z,34.11
2023-04-15T00:27:55.993Z,34.09
2023-04-15T00:28:56.001Z,34.08
2023-04-15T00:29:56.065Z,34.08
2023-04-15T00:30:56.153Z,34.04
2023-04-15T00:31:56.116Z,34.11
2023-04-15T00:32:56.228Z,34.11
2023-04-15T00:33:56.197Z,34.09
2023-04-15T00:34:56.224Z,34.09
2023-04-15T00:35:56.276Z,34.08
2023-04-15T00:36:56.316Z,34.08
2023-04-15T00:37:56.342Z,34.05
2023-04-15T00:38:56.361Z,34.13
2023-04-15T00:39:56.396Z,34.09
2023-04-15T00:40:56.430Z,34.10
2023-04-15T00:41:56.496Z,34.14
2023-04-15T00:42:56.524Z,34.07
2023-04-15T00:43:56.517Z,34.07
2023-04-15T00:44:56.648Z,34.06
2023-04-15T00:45:56.645Z,34.09
2023-04-15T00:46:56.634Z,34.08
2023-04-15T00:47:56.698Z,34.08
2023-04-15T00:48:56.721Z,34.12
2023-04-15T00:49:56.758Z,34.10
2023-04-15T00:50:56.786Z,34.09
2023-04-15T00:51:56.794Z,34.09
2023-04-15T00:52:56.833Z,34.04
2023-04-15T00:53:56.845Z,34.03
2023-04-15T00:54:56.909Z,34.04
2023-04-15T00:55:56.924Z,34.04
2023-04-15T00:56:56.985Z,34.06
2023-04-15T00:57:56.969Z,34.06
2023-04-15T00:58:57.027Z,34.03
2023-04-15T00:59:57.093Z,34.02
2023-04-15T01:00:57.113Z,34.04
2023-04-15T01:01:57.222Z,34.04
2023-04-15T01:02:57.345Z,34.05
2023-04-15T01:03:57.366Z,34.03
2023-04-15T01:04:57.243Z,34.07
2023-04-15T01:05:57.243Z,34.10
2023-04-15T01:06:57.298Z,34.06
2023-04-15T01:07:57.365Z,34.06
2023-04-15T01:08:57.354Z,34.01
2023-04-15T01:09:57.402Z,34.03
2023-04-15T01:10:57.410Z,34.04
2023-04-15T01:11:57.481Z,34.10
2023-04-15T01:12:57.507Z,34.04
2023-04-15T01:13:57.509Z,34.02
2023-04-15T01:14:57.565Z,34.02
2023-04-15T01:15:57.677Z,34.00
2023-04-15T01:16:57.631Z,34.01
2023-04-15T01:17:57.741Z,34.03
2023-04-15T01:18:57.814Z,34.05
2023-04-15T01:19:57.736Z,34.03
2023-04-15T01:20:57.784Z,34.04
2023-04-15T01:21:57.820Z,33.97
2023-04-15T01:22:57.819Z,34.02
2023-04-15T01:23:57.864Z,34.01
2023-04-15T01:24:57.912Z,33.95
2023-04-15T01:25:57.936Z,33.98
2023-04-15T01:26:57.996Z,33.98
2023-04-15T01:27:57.994Z,34.00
2023-04-15T01:28:58.156Z,33.92
2023-04-15T01:29:58.091Z,33.94
2023-04-15T01:30:58.089Z,33.99
2023-04-15T01:31:58.311Z,34.00
2023-04-15T01:32:58.239Z,33.95
2023-04-15T01:33:58.211Z,34.02
2023-04-15T01:34:58.250Z,33.97
2023-04-15T01:35:58.291Z,34.00
2023-04-15T01:36:58.314Z,33.97
2023-04-15T01:37:58.362Z,33.94
2023-04-15T01:38:58.520Z,33.98
2023-04-15T01:39:58.417Z,33.99
2023-04-15T01:40:58.442Z,34.01
2023-04-15T01:41:58.475Z,33.96
2023-04-15T01:42:58.512Z,33.95
2023-04-15T01:43:58.552Z,33.95
2023-04-15T01:44:58.640Z,33.93
2023-04-15T01:45:58.642Z,33.93
2023-04-15T01:46:58.758Z,33.92
2023-04-15T01:47:58.790Z,33.97
2023-04-15T01:48:58.891Z,33.92
2023-04-15T01:49:58.766Z,33.89
2023-04-15T01:50:58.801Z,33.91
2023-04-15T01:51:58.828Z,33.96
2023-04-15T01:52:58.864Z,33.93
2023-04-15T01:53:58.936Z,33.93
2023-04-15T01:54:58.940Z,33.92
2023-04-15T01:55:58.952Z,33.87
2023-04-15T01:56:59.065Z,34.00
2023-04-15T01:57:59.057Z,33.91
2023-04-15T01:58:59.253Z,33.95
2023-04-15T01:59:59.145Z,33.92
2023-04-15T02:00:59.151Z,33.90
2023-04-15T02:01:59.220Z,33.91
2023-04-15T02:02:59.274Z,33.89
2023-04-15T02:03:59.296Z,33.92
2023-04-15T02:04:59.298Z,33.88
2023-04-15T02:05:59.302Z,33.92
2023-04-15T02:06:59.341Z,33.90
2023-04-15T02:07:59.349Z,33.87
2023-04-15T02:08:59.592Z,33.93
2023-04-15T02:09:59.469Z,33.85
2023-04-15T02:10:59.505Z,33.89
2023-04-15T02:11:59.551Z,33.89
2023-04-15T02:12:59.528Z,33.90
2023-04-15T02:13:59.556Z,33.89
2023-04-15T02:14:59.624Z,33.90
2023-04-15T02:15:59.641Z,33.92
2023-04-15T02:16:59.729Z,33.94
2023-04-15T02:17:59.842Z,33.87
2023-04-15T02:19:00.015Z,33.90
2023-04-15T02:19:59.772Z,33.88
2023-04-15T02:20:59.798Z,33.90
2023-04-15T02:21:59.854Z,33.90
2023-04-15T02:22:59.874Z,33.89
2023-04-15T02:23:59.924Z,33.92
2023-04-15T02:24:59.953Z,33.91
2023-04-15T02:25:59.978Z,33.92
2023-04-15T02:27:00.013Z,33.85
2023-04-15T02:28:00.050Z,33.87
2023-04-15T02:29:00.363Z,33.86
2023-04-15T02:30:00.135Z,33.89
2023-04-15T02:31:00.154Z,33.89
2023-04-15T02:32:00.281Z,33.85
2023-04-15T02:33:00.244Z,33.84
2023-04-15T02:34:00.242Z,33.85
2023-04-15T02:35:00.314Z,33.80
2023-04-15T02:36:00.318Z,33.84
2023-04-15T02:37:00.338Z,33.83
2023-04-15T02:38:00.385Z,33.87
2023-04-15T02:39:00.797Z,33.86
2023-04-15T02:40:00.449Z,33.85
2023-04-15T02:41:00.495Z,33.86
2023-04-15T02:42:00.509Z,33.82
2023-04-15T02:43:00.550Z,33.84
2023-04-15T02:44:00.577Z,33.81
2023-04-15T02:45:00.633Z,33.79
2023-04-15T02:46:00.678Z,33.81
2023-04-15T02:47:00.693Z,33.84
2023-04-15T02:48:00.727Z,33.81
2023-04-15T02:49:00.892Z,33.78
2023-04-15T02:50:00.803Z,33.77
2023-04-15T02:51:00.809Z,33.79
2023-04-15T02:52:00.849Z,33.79
2023-04-15T02:53:00.874Z,33.80
2023-04-15T02:54:00.889Z,33.73
2023-04-15T02:55:00.962Z,33.73
2023-04-15T02:56:01.000Z,33.77
2023-04-15T02:57:01.067Z,33.80
2023-04-15T02:58:01.023Z,33.77
2023-04-15T02:59:01.391Z,33.74
2023-04-15T03:00:01.157Z,33.77
2023-04-15T03:01:01.171Z,33.74
2023-04-15T03:02:01.236Z,33.78
2023-04-15T03:03:01.321Z,33.75
2023-04-15T03:04:01.314Z,33.70
2023-04-15T03:05:01.294Z,33.74
2023-04-15T03:06:01.344Z,33.71
2023-04-15T03:07:01.374Z,33.70
2023-04-15T03:08:01.499Z,33.74
2023-04-15T03:09:01.722Z,33.73
2023-04-15T03:10:01.451Z,33.75
2023-04-15T03:11:01.518Z,33.67
2023-04-15T03:12:01.543Z,33.72
2023-04-15T03:13:01.560Z,33.68
2023-04-15T03:14:01.598Z,33.65
2023-04-15T03:15:01.662Z,33.69
2023-04-15T03:16:01.665Z,33.69
2023-04-15T03:17:01.689Z,33.70
2023-04-15T03:18:01.818Z,33.66
2023-04-15T03:19:01.944Z,33.71
2023-04-15T03:20:01.816Z,33.68
2023-04-15T03:21:01.856Z,33.65
2023-04-15T03:22:01.879Z,33.63
2023-04-15T03:23:01.954Z,33.65
2023-04-15T03:24:01.948Z,33.62
2023-04-15T03:25:01.946Z,33.66
2023-04-15T03:26:02.051Z,33.69
2023-04-15T03:27:02.061Z,33.68
2023-04-15T03:28:02.063Z,33.65
2023-04-15T03:29:02.278Z,33.60
2023-04-15T03:30:02.145Z,33.62
2023-04-15T03:31:02.199Z,33.63
2023-04-15T03:32:02.181Z,33.63
2023-04-15T03:33:02.280Z,33.62
2023-04-15T03:34:02.258Z,33.62
2023-04-15T03:35:02.319Z,33.57
2023-04-15T03:36:02.329Z,33.59
2023-04-15T03:37:02.379Z,33.59
2023-04-15T03:38:02.410Z,33.59
2023-04-15T03:39:02.647Z,33.60
2023-04-15T03:40:02.469Z,33.56
2023-04-15T03:41:02.477Z,33.55
2023-04-15T03:42:02.508Z,33.63
2023-04-15T03:43:02.551Z,33.61
2023-04-15T03:44:02.634Z,33.58
2023-04-15T03:45:02.652Z,33.51
2023-04-15T03:46:02.681Z,33.55
2023-04-15T03:47:02.687Z,33.52
2023-04-15T03:48:16.089Z,33.52
2023-04-15T03:49:03.934Z,33.51
2023-04-15T03:50:02.715Z,33.54
2023-04-15T03:51:02.683Z,33.58
2023-04-15T03:52:02.693Z,33.57
2023-04-15T03:53:02.693Z,33.54
2023-04-15T03:54:02.670Z,33.56
2023-04-15T03:55:02.699Z,33.50
2023-04-15T03:56:02.659Z,33.50
2023-04-15T03:57:02.649Z,33.49
2023-04-15T03:58:02.643Z,33.46
2023-04-15T03:59:03.093Z,33.54
2023-04-15T04:00:02.628Z,33.48
2023-04-15T04:01:02.654Z,33.52
2023-04-15T04:02:02.738Z,33.52
2023-04-15T04:03:02.791Z,33.45
2023-04-15T04:04:02.763Z,33.53
2023-04-15T04:05:02.750Z,33.39
2023-04-15T04:06:02.748Z,33.41
2023-04-15T04:07:02.786Z,33.43
2023-04-15T04:08:02.819Z,33.43
2023-04-15T04:09:03.100Z,33.41
2023-04-15T04:10:02.875Z,33.39
2023-04-15T04:11:02.909Z,33.35
2023-04-15T04:12:02.964Z,33.36
2023-04-15T04:13:02.974Z,33.43
2023-04-15T04:14:03.037Z,33.36
2023-04-15T04:15:03.091Z,33.52
2023-04-15T04:16:03.157Z,33.37
2023-04-15T04:17:03.150Z,33.33
2023-04-15T04:18:03.200Z,33.38
2023-04-15T04:19:03.381Z,33.41
2023-04-15T04:20:03.220Z,33.38
2023-04-15T04:21:03.252Z,33.33
2023-04-15T04:22:03.281Z,33.32
2023-04-15T04:23:03.310Z,33.28
2023-04-15T04:24:03.302Z,33.26
2023-04-15T04:25:03.370Z,33.29
2023-04-15T04:26:03.385Z,33.33
2023-04-15T04:27:03.420Z,33.30
2023-04-15T04:28:03.485Z,33.29
2023-04-15T04:29:03.827Z,33.30
2023-04-15T04:30:03.531Z,33.30
2023-04-15T04:31:03.574Z,33.27
2023-04-15T04:32:03.635Z,33.21
2023-04-15T04:33:03.670Z,33.22
2023-04-15T04:34:03.631Z,33.18
2023-04-15T04:35:03.729Z,33.28
2023-04-15T04:36:03.729Z,33.25
2023-04-15T04:37:03.734Z,33.22
2023-04-15T04:38:03.806Z,33.22
2023-04-15T04:39:03.858Z,33.20
2023-04-15T04:40:03.858Z,33.16
2023-04-15T04:41:03.866Z,33.23
2023-04-15T04:42:03.896Z,33.18
2023-04-15T04:43:03.942Z,33.24
2023-04-15T04:44:03.980Z,33.19
2023-04-15T04:45:04.016Z,33.16
2023-04-15T04:46:04.095Z,33.19
2023-04-15T04:47:04.095Z,33.16
2023-04-15T04:48:04.133Z,33.18
2023-04-15T04:49:04.388Z,33.13
2023-04-15T04:50:04.196Z,33.05
2023-04-15T04:51:04.187Z,33.11
2023-04-15T04:52:04.240Z,33.11
2023-04-15T04:53:04.271Z,33.16
2023-04-15T04:54:04.324Z,33.09
2023-04-15T04:55:04.358Z,33.11
2023-04-15T04:56:04.385Z,33.09
2023-04-15T04:57:04.444Z,33.02
2023-04-15T04:58:04.455Z,33.05
2023-04-15T04:59:04.511Z,33.06
2023-04-15T05:00:04.566Z,33.04
2023-04-15T05:01:04.596Z,33.04
2023-04-15T05:02:04.660Z,33.05
2023-04-15T05:03:04.705Z,33.04
2023-04-15T05:04:04.885Z,33.08
2023-04-15T05:05:04.732Z,33.03
2023-04-15T05:06:04.715Z,32.95
2023-04-15T05:07:04.742Z,33.01
2023-04-15T05:08:04.794Z,33.04
2023-04-15T05:09:04.847Z,32.97
2023-04-15T05:10:04.898Z,32.96
2023-04-15T05:11:04.928Z,32.96
2023-04-15T05:12:04.976Z,32.94
2023-04-15T05:13:04.964Z,32.89
2023-04-15T05:14:05.018Z,32.91
2023-04-15T05:15:05.065Z,32.96
2023-04-15T05:16:05.088Z,32.96
2023-04-15T05:17:05.117Z,32.85
2023-04-15T05:18:05.201Z,32.87
2023-04-15T05:19:05.214Z,32.91
2023-04-15T05:20:05.227Z,32.92
2023-04-15T05:21:05.283Z,32.88
2023-04-15T05:22:05.297Z,32.92
2023-04-15T05:23:05.336Z,32.92
2023-04-15T05:24:05.364Z,32.88
2023-04-15T05:25:05.392Z,32.84
2023-04-15T05:26:05.428Z,32.85
2023-04-15T05:27:05.460Z,32.81
2023-04-15T05:28:05.503Z,32.88
2023-04-15T05:29:05.520Z,32.94
2023-04-15T05:30:05.583Z,32.84
2023-04-15T05:31:05.648Z,32.84
2023-04-15T05:32:05.642Z,32.82
2023-04-15T05:33:05.651Z,32.87
2023-04-15T05:34:05.733Z,32.85
2023-04-15T05:35:05.770Z,32.80
2023-04-15T05:36:05.772Z,32.86
2023-04-15T05:37:05.812Z,32.82
2023-04-15T05:38:05.877Z,32.81
2023-04-15T05:39:05.885Z,32.77
2023-04-15T05:40:05.935Z,32.76
2023-04-15T05:41:05.967Z,32.84
2023-04-15T05:42:06.119Z,32.72
2023-04-15T05:43:06.025Z,32.81
2023-04-15T05:44:06.063Z,32.87
2023-04-15T05:45:06.100Z,32.77
2023-04-15T05:46:06.296Z,32.79
2023-04-15T05:47:06.198Z,32.78
2023-04-15T05:48:06.216Z,32.69
2023-04-15T05:49:06.255Z,32.79
2023-04-15T05:50:06.302Z,32.70
2023-04-15T05:51:06.358Z,32.71
2023-04-15T05:52:06.395Z,32.73
2023-04-15T05:53:06.386Z,32.70
2023-04-15T05:54:06.403Z,32.73
2023-04-15T05:55:06.500Z,32.69
2023-04-15T05:56:06.495Z,32.71
2023-04-15T05:57:06.556Z,32.70
2023-04-15T05:58:06.549Z,32.65
2023-04-15T05:59:06.574Z,32.63
2023-04-15T06:00:06.640Z,32.60
2023-04-15T06:01:06.662Z,32.62
2023-04-15T06:02:06.720Z,32.58
2023-04-15T06:03:06.845Z,32.59
2023-04-15T06:04:06.838Z,32.73
2023-04-15T06:05:06.867Z,32.56
2023-04-15T06:06:06.826Z,32.72
2023-04-15T06:07:06.869Z,32.59
2023-04-15T06:08:06.882Z,32.43
2023-04-15T06:09:06.942Z,32.47
2023-04-15T06:10:06.980Z,32.51
2023-04-15T06:11:06.996Z,32.45
2023-04-15T06:12:07.046Z,32.55
2023-04-15T06:13:07.073Z,32.55
2023-04-15T06:14:07.080Z,32.54
2023-04-15T06:15:07.114Z,32.46
2023-04-15T06:16:07.189Z,32.54
2023-04-15T06:17:07.216Z,32.56
2023-04-15T06:18:07.226Z,32.47
2023-04-15T06:19:07.244Z,32.51
2023-04-15T06:20:07.299Z,32.51
2023-04-15T06:21:07.309Z,32.67
2023-04-15T06:22:07.339Z,32.47
2023-04-15T06:23:07.396Z,32.50
2023-04-15T06:24:07.402Z,32.48
2023-04-15T06:25:07.456Z,32.44
2023-04-15T06:26:07.487Z,32.39
2023-04-15T06:27:07.506Z,32.39
2023-04-15T06:28:07.522Z,32.33
2023-04-15T06:29:07.576Z,32.30
2023-04-15T06:30:07.633Z,32.31
2023-04-15T06:31:07.703Z,32.37
2023-04-15T06:32:07.660Z,32.43
2023-04-15T06:33:07.719Z,32.44
2023-04-15T06:34:07.774Z,32.31
2023-04-15T06:35:07.800Z,32.25
2023-04-15T06:36:07.827Z,32.31
2023-04-15T06:37:07.827Z,32.29
2023-04-15T06:38:07.859Z,32.29
2023-04-15T06:39:07.925Z,32.24
2023-04-15T06:40:07.957Z,32.10
2023-04-15T06:41:07.981Z,32.22
2023-04-15T06:42:08.060Z,32.17
2023-04-15T06:43:08.049Z,32.12
2023-04-15T06:44:08.112Z,32.28
2023-04-15T06:45:08.139Z,32.28
2023-04-15T06:46:08.229Z,32.09
2023-04-15T06:47:08.220Z,32.42
2023-04-15T06:48:08.229Z,32.36
2023-04-15T06:49:08.290Z,32.45
2023-04-15T06:50:08.313Z,32.37
2023-04-15T06:51:08.354Z,32.21
2023-04-15T06:52:08.390Z,32.13
2023-04-15T06:53:08.437Z,32.16
2023-04-15T06:54:08.461Z,32.49
2023-04-15T06:55:08.506Z,32.44
2023-04-15T06:56:08.547Z,32.27
2023-04-15T06:57:08.598Z,32.29
2023-04-15T06:58:08.599Z,32.36
2023-04-15T06:59:08.627Z,32.15
2023-04-15T07:00:08.723Z,32.10
2023-04-15T07:01:08.743Z,32.25
2023-04-15T07:02:08.802Z,32.05
2023-04-15T07:03:08.809Z,32.23
2023-04-15T07:04:08.890Z,32.35
2023-04-15T07:05:08.885Z,32.35
2023-04-15T07:06:08.896Z,32.31
2023-04-15T07:07:08.921Z,32.41
2023-04-15T07:08:08.946Z,32.45
2023-04-15T07:09:08.975Z,32.67
2023-04-15T07:10:09.019Z,32.55
2023-04-15T07:11:09.078Z,32.59
2023-04-15T07:12:09.082Z,32.44
2023-04-15T07:13:09.140Z,32.54
2023-04-15T07:14:09.167Z,32.49
2023-04-15T07:15:09.205Z,32.32
2023-04-15T07:16:09.204Z,32.15
2023-04-15T07:17:09.327Z,32.24
2023-04-15T07:18:09.285Z,32.08
2023-04-15T07:19:09.313Z,32.33
2023-04-15T07:20:09.320Z,32.31
2023-04-15T07:21:09.374Z,32.18
2023-04-15T07:22:09.379Z,32.16
2023-04-15T07:23:09.429Z,32.31
2023-04-15T07:24:09.425Z,32.55
2023-04-15T07:25:09.469Z,32.33
2023-04-15T07:26:09.463Z,32.58
2023-04-15T07:27:09.507Z,32.55
2023-04-15T07:28:09.506Z,32.51
2023-04-15T07:29:09.518Z,32.62
2023-04-15T07:30:09.554Z,32.49
2023-04-15T07:31:09.636Z,32.47
2023-04-15T07:32:09.629Z,32.61
2023-04-15T07:33:09.634Z,32.67
2023-04-15T07:34:09.697Z,32.54
2023-04-15T07:35:09.727Z,32.46
2023-04-15T07:36:09.738Z,32.34
2023-04-15T07:37:09.750Z,32.44
2023-04-15T07:38:09.778Z,32.47
2023-04-15T07:39:09.761Z,32.44
2023-04-15T07:40:09.800Z,32.30
2023-04-15T07:41:09.850Z,32.37
2023-04-15T07:42:09.870Z,32.32
2023-04-15T07:43:09.860Z,32.39
2023-04-15T07:44:09.890Z,32.45
2023-04-15T07:45:09.907Z,32.42
2023-04-15T07:46:09.945Z,32.35
2023-04-15T07:47:09.963Z,32.47
2023-04-15T07:48:09.996Z,32.38
2023-04-15T07:49:09.969Z,32.36
2023-04-15T07:50:09.987Z,32.44
2023-04-15T07:51:10.021Z,32.46
2023-04-15T07:52:10.012Z,32.44
2023-04-15T07:53:10.047Z,32.30
2023-04-15T07:54:10.080Z,32.40
2023-04-15T07:55:10.081Z,32.34
2023-04-15T07:56:10.099Z,32.27
2023-04-15T07:57:10.113Z,32.25
2023-04-15T07:58:10.143Z,32.22
2023-04-15T07:59:10.163Z,32.34
2023-04-15T08:00:10.158Z,32.29
2023-04-15T08:01:10.184Z,32.26
2023-04-15T08:02:10.244Z,32.30
2023-04-15T08:03:10.300Z,32.31
2023-04-15T08:04:10.302Z,32.26
2023-04-15T08:05:10.298Z,32.31
2023-04-15T08:06:10.238Z,32.30
2023-04-15T08:07:10.268Z,32.29
2023-04-15T08:08:10.285Z,32.25
2023-04-15T08:09:10.277Z,32.24
2023-04-15T08:10:10.351Z,32.31
2023-04-15T08:11:10.295Z,32.28
2023-04-15T08:12:10.286Z,32.23
2023-04-15T08:13:10.335Z,32.25
2023-04-15T08:14:10.352Z,32.22
2023-04-15T08:15:10.359Z,32.26
2023-04-15T08:16:10.394Z,32.18
2023-04-15T08:17:10.376Z,32.19
2023-04-15T08:18:10.399Z,32.20
2023-04-15T08:19:10.382Z,32.21
2023-04-15T08:20:10.411Z,32.20
2023-04-15T08:21:10.402Z,32.18
2023-04-15T08:22:18.087Z,32.16
2023-04-15T08:23:11.445Z,32.11
2023-04-15T08:24:10.394Z,32.02
2023-04-15T08:25:10.410Z,31.94
2023-04-15T08:26:10.359Z,31.89
2023-04-15T08:27:10.375Z,31.87
2023-04-15T08:28:10.360Z,31.92
2023-04-15T08:29:10.400Z,31.90
2023-04-15T08:30:10.363Z,31.85
2023-04-15T08:31:10.337Z,31.85
2023-04-15T08:32:10.325Z,31.80
2023-04-15T08:33:10.347Z,31.78
2023-04-15T08:34:10.326Z,31.77
2023-04-15T08:35:10.349Z,31.78
2023-04-15T08:36:10.286Z,31.81
2023-04-15T08:37:11.554Z,31.77
2023-04-15T08:38:10.305Z,31.75
2023-04-15T08:39:10.277Z,31.83
2023-04-15T08:40:10.295Z,31.77
2023-04-15T08:41:10.300Z,31.79
2023-04-15T08:42:10.258Z,31.81
2023-04-15T08:43:10.270Z,31.88
2023-04-15T08:44:10.253Z,31.84
2023-04-15T08:45:10.273Z,31.85
2023-04-15T08:46:10.233Z,31.81
2023-04-15T08:47:10.542Z,31.81
2023-04-15T08:48:10.248Z,31.79
2023-04-15T08:49:10.201Z,31.79
2023-04-15T08:50:10.259Z,31.77
2023-04-15T08:51:10.218Z,31.79
2023-04-15T08:52:10.231Z,31.79
2023-04-15T08:53:10.231Z,31.77
2023-04-15T08:54:10.213Z,31.78
2023-04-15T08:55:10.219Z,31.78
2023-04-15T08:56:10.241Z,31.77
2023-04-15T08:57:10.212Z,31.79
2023-04-15T08:58:10.220Z,31.76
2023-04-15T08:59:10.188Z,31.76
2023-04-15T09:00:10.217Z,31.78
2023-04-15T09:01:10.236Z,31.73
2023-04-15T09:02:10.222Z,31.74
2023-04-15T09:03:10.282Z,31.74
2023-04-15T09:04:10.274Z,31.74
2023-04-15T09:05:10.166Z,31.73
2023-04-15T09:06:10.198Z,31.70
2023-04-15T09:07:10.177Z,31.71
2023-04-15T09:08:10.243Z,31.70
2023-04-15T09:09:10.187Z,31.65
2023-04-15T09:10:10.175Z,31.65
2023-04-15T09:11:10.159Z,31.66
2023-04-15T09:12:10.187Z,31.67
2023-04-15T09:13:10.154Z,31.67
2023-04-15T09:14:10.140Z,31.66
2023-04-15T09:15:10.176Z,31.64
2023-04-15T09:16:10.191Z,31.65
2023-04-15T09:17:10.122Z,31.67
2023-04-15T09:18:10.135Z,31.68
2023-04-15T09:19:10.141Z,31.67
2023-04-15T09:20:10.162Z,31.59
2023-04-15T09:21:10.116Z,31.59
2023-04-15T09:22:10.159Z,31.58
2023-04-15T09:23:10.141Z,31.61
2023-04-15T09:24:10.181Z,31.57
2023-04-15T09:25:10.198Z,31.54
2023-04-15T09:26:10.130Z,31.55
2023-04-15T09:27:10.140Z,31.56
2023-04-15T09:28:10.167Z,31.58
2023-04-15T09:29:10.176Z,31.56
2023-04-15T09:30:10.192Z,31.61
2023-04-15T09:31:10.239Z,31.72
2023-04-15T09:32:10.225Z,31.72
2023-04-15T09:33:10.236Z,31.66
2023-04-15T09:34:10.283Z,31.66
2023-04-15T09:35:10.328Z,31.65
2023-04-15T09:36:10.373Z,31.63
2023-04-15T09:37:10.558Z,31.65
2023-04-15T09:38:10.428Z,31.59
2023-04-15T09:39:10.450Z,31.58
2023-04-15T09:40:10.455Z,31.60
2023-04-15T09:41:10.496Z,31.60
2023-04-15T09:42:10.537Z,31.56
2023-04-15T09:43:10.588Z,31.54
2023-04-15T09:44:10.613Z,31.54
2023-04-15T09:45:10.656Z,31.57
2023-04-15T09:46:10.701Z,31.55
2023-04-15T09:47:10.698Z,31.57
2023-04-15T09:48:10.799Z,31.55
2023-04-15T09:49:10.808Z,31.58
2023-04-15T09:50:10.888Z,31.58
2023-04-15T09:51:10.908Z,31.57
2023-04-15T09:52:10.942Z,31.56
2023-04-15T09:53:11.040Z,31.55
2023-04-15T09:54:11.069Z,31.53
2023-04-15T09:55:11.153Z,31.53
2023-04-15T09:56:11.156Z,31.49
2023-04-15T09:57:11.181Z,31.50
2023-04-15T09:58:11.219Z,31.48
2023-04-15T09:59:11.296Z,31.46
2023-04-15T10:00:11.399Z,31.46
2023-04-15T10:01:11.428Z,31.45
2023-04-15T10:02:11.536Z,31.45
2023-04-15T10:03:11.721Z,31.43
2023-04-15T10:04:11.639Z,31.43
2023-04-15T10:05:11.648Z,31.44
2023-04-15T10:06:11.685Z,31.43
2023-04-15T10:07:11.755Z,31.41
2023-04-15T10:08:11.794Z,31.39
2023-04-15T10:09:11.860Z,31.37
2023-04-15T10:10:11.947Z,31.39
2023-04-15T10:11:11.999Z,31.37
2023-04-15T10:12:12.066Z,31.36
2023-04-15T10:13:12.116Z,31.38
2023-04-15T10:14:12.193Z,31.35
2023-04-15T10:15:12.268Z,31.36
2023-04-15T10:16:12.353Z,31.34
2023-04-15T10:17:12.352Z,31.34
2023-04-15T10:18:12.437Z,31.33
2023-04-15T10:19:12.482Z,31.35
2023-04-15T10:20:12.566Z,31.37
2023-04-15T10:21:12.640Z,31.35
2023-04-15T10:22:12.699Z,31.34
2023-04-15T10:23:13.523Z,31.37
2023-04-15T10:24:12.799Z,31.37
2023-04-15T10:25:12.876Z,31.31
2023-04-15T10:26:12.899Z,31.26
2023-04-15T10:27:13.004Z,31.24
2023-04-15T10:28:13.041Z,31.30
2023-04-15T10:29:13.141Z,31.24
2023-04-15T10:30:13.212Z,31.26
2023-04-15T10:31:13.278Z,31.29
2023-04-15T10:32:13.276Z,31.18
2023-04-15T10:33:13.367Z,31.21
2023-04-15T10:34:13.399Z,31.18
2023-04-15T10:35:13.494Z,31.20
2023-04-15T10:36:13.549Z,31.21
2023-04-15T10:37:13.631Z,31.16
2023-04-15T10:38:13.680Z,31.09
2023-04-15T10:39:13.717Z,31.14
2023-04-15T10:40:13.909Z,31.15
2023-04-15T10:41:13.836Z,31.13
2023-04-15T10:42:13.977Z,31.16
2023-04-15T10:43:13.954Z,31.13
2023-04-15T10:44:14.005Z,31.08
2023-04-15T10:45:14.082Z,31.10
2023-04-15T10:46:14.147Z,31.07
2023-04-15T10:47:14.181Z,31.02
2023-04-15T10:48:14.248Z,30.97
2023-04-15T10:49:14.328Z,30.98
2023-04-15T10:50:14.362Z,30.92
2023-04-15T10:51:14.396Z,30.88
2023-04-15T10:52:14.466Z,30.90
2023-04-15T10:53:14.515Z,30.84
2023-04-15T10:54:15.562Z,30.96
2023-04-15T10:55:14.690Z,30.97
2023-04-15T10:56:14.686Z,30.94
2023-04-15T10:57:14.747Z,31.00
2023-04-15T10:58:14.810Z,31.05
2023-04-15T10:59:14.876Z,31.08
2023-04-15T11:00:14.938Z,31.12
2023-04-15T11:01:14.934Z,31.04
2023-04-15T11:02:15.078Z,31.03
2023-04-15T11:03:15.182Z,30.98
2023-04-15T11:04:15.163Z,31.09
2023-04-15T11:05:15.186Z,31.11
2023-04-15T11:06:15.226Z,31.08
2023-04-15T11:07:15.295Z,31.15
2023-04-15T11:08:15.333Z,31.07
2023-04-15T11:09:15.369Z,30.98
2023-04-15T11:10:15.446Z,31.06
2023-04-15T11:11:15.460Z,31.09
2023-04-15T11:12:15.525Z,31.01
2023-04-15T11:13:15.580Z,30.98
2023-04-15T11:14:15.607Z,30.99
2023-04-15T11:15:15.706Z,30.85
2023-04-15T11:16:15.789Z,30.92
2023-04-15T11:17:15.813Z,30.92
2023-04-15T11:18:15.852Z,30.91
2023-04-15T11:19:15.936Z,30.98
2023-04-15T11:20:16.003Z,31.01
2023-04-15T11:21:16.007Z,31.01
2023-04-15T11:22:16.058Z,31.00
2023-04-15T11:23:16.179Z,31.01
2023-04-15T11:24:16.195Z,31.03
2023-04-15T11:25:16.250Z,30.97
2023-04-15T11:26:16.245Z,31.01
2023-04-15T11:27:16.312Z,31.03
2023-04-15T11:28:16.394Z,31.01
2023-04-15T11:29:16.401Z,30.97
2023-04-15T11:30:16.469Z,30.94
2023-04-15T11:31:16.582Z,31.01
2023-04-15T11:32:16.579Z,30.97
2023-04-15T11:33:16.586Z,30.94
2023-04-15T11:34:16.644Z,30.89
2023-04-15T11:35:16.710Z,30.87
2023-04-15T11:36:16.778Z,30.93
2023-04-15T11:37:16.812Z,30.91
2023-04-15T11:38:16.839Z,30.94
2023-04-15T11:39:16.887Z,30.96
2023-04-15T11:40:17.383Z,30.97
2023-04-15T11:41:16.967Z,31.00
2023-04-15T11:42:17.056Z,30.95
2023-04-15T11:43:17.105Z,30.93
2023-04-15T11:44:17.106Z,30.96
2023-04-15T11:45:18.068Z,30.99
2023-04-15T11:46:17.350Z,30.90
2023-04-15T11:47:17.247Z,30.92
2023-04-15T11:48:17.262Z,30.95
2023-04-15T11:49:17.329Z,30.95
2023-04-15T11:50:17.385Z,30.96
2023-04-15T11:51:17.447Z,31.00
2023-04-15T11:52:17.436Z,31.00
2023-04-15T11:53:17.521Z,30.99
2023-04-15T11:54:17.549Z,30.95
2023-04-15T11:55:17.608Z,30.95
2023-04-15T11:56:17.637Z,30.95
2023-04-15T11:57:17.711Z,30.95
2023-04-15T11:58:17.759Z,30.95
2023-04-15T11:59:17.824Z,30.98
2023-04-15T12:00:17.832Z,30.99
2023-04-15T12:01:17.905Z,30.97
2023-04-15T12:02:18.181Z,30.97
2023-04-15T12:03:18.112Z,31.00
2023-04-15T12:04:19.000Z,31.01
2023-04-15T12:05:18.142Z,30.98
2023-04-15T12:06:18.167Z,30.96
2023-04-15T12:07:18.206Z,30.88
2023-04-15T12:08:18.239Z,30.89
2023-04-15T12:09:18.274Z,30.93
2023-04-15T12:10:18.310Z,30.89
2023-04-15T12:11:18.378Z,30.86
2023-04-15T12:12:18.389Z,30.84
2023-04-15T12:13:18.457Z,30.83
2023-04-15T12:14:18.522Z,30.90
2023-04-15T12:15:18.576Z,30.86
2023-04-15T12:16:18.697Z,30.84
2023-04-15T12:17:18.654Z,30.85
2023-04-15T12:18:18.741Z,30.93
2023-04-15T12:19:18.739Z,30.87
2023-04-15T12:20:18.815Z,30.88
2023-04-15T12:21:18.884Z,30.91
2023-04-15T12:22:18.870Z,30.91
2023-04-15T12:23:18.958Z,30.95
2023-04-15T12:24:18.972Z,30.96
2023-04-15T12:25:19.036Z,30.94
2023-04-15T12:26:19.094Z,30.92
2023-04-15T12:27:19.123Z,30.88
2023-04-15T12:28:19.173Z,30.90
2023-04-15T12:29:19.232Z,30.84
2023-04-15T12:30:19.235Z,30.87
2023-04-15T12:31:19.355Z,30.88
2023-04-15T12:32:19.383Z,30.87
2023-04-15T12:33:19.367Z,30.87
2023-04-15T12:34:19.420Z,30.83
2023-04-15T12:35:19.439Z,30.85
2023-04-15T12:36:19.524Z,30.84
2023-04-15T12:37:19.557Z,30.84
2023-04-15T12:38:20.111Z,30.82
2023-04-15T12:39:19.623Z,30.86
2023-04-15T12:40:19.646Z,30.86
2023-04-15T12:41:19.734Z,30.90
2023-04-15T12:42:19.763Z,30.84
2023-04-15T12:43:19.814Z,30.85
2023-04-15T12:44:19.842Z,30.83
2023-04-15T12:45:19.898Z,30.83
2023-04-15T12:46:19.980Z,30.86
2023-04-15T12:47:20.041Z,30.85
2023-04-15T12:48:20.045Z,30.83
2023-04-15T12:49:20.094Z,30.82
2023-04-15T12:50:20.128Z,30.83
2023-04-15T12:51:20.172Z,30.85
2023-04-15T12:52:20.220Z,30.82
2023-04-15T12:53:20.244Z,30.81